sensor_id;sensor_type;location;lat;lon;timestamp;P1;durP1;ratioP1;P2;durP2;ratioP2
249;SDS011;109;19.806;-70.704;2022-09-09T00:03:56;10.63;;;5.80;;
249;SDS011;109;19.806;-70.704;2022-09-09T00:06:30;7.03;;;5.10;;
249;SDS011;109;19.806;-70.704;2022-09-09T00:09:10;11.20;;;5.70;;
249;SDS011;109;19.806;-70.704;2022-09-09T00:15:15;11.00;;;6.10;;
249;SDS011;109;19.806;-70.704;2022-09-09T00:17:50;14.20;;;6.87;;
249;SDS011;109;19.806;-70.704;2022-09-09T00:23:13;10.20;;;5.80;;
249;SDS011;109;19.806;-70.704;2022-09-09T00:25:53;9.10;;;5.53;;
249;SDS011;109;19.806;-70.704;2022-09-09T00:28:26;11.17;;;6.10;;
249;SDS011;109;19.806;-70.704;2022-09-09T00:30:56;12.10;;;6.37;;
249;SDS011;109;19.806;-70.704;2022-09-09T00:33:27;10.10;;;6.07;;
249;SDS011;109;19.806;-70.704;2022-09-09T00:35:57;8.10;;;5.70;;
249;SDS011;109;19.806;-70.704;2022-09-09T00:38:26;7.87;;;5.27;;
249;SDS011;109;19.806;-70.704;2022-09-09T00:43:48;10.60;;;5.53;;
249;SDS011;109;19.806;-70.704;2022-09-09T00:54:38;13.03;;;4.60;;
249;SDS011;109;19.806;-70.704;2022-09-09T00:57:30;7.93;;;5.60;;
249;SDS011;109;19.806;-70.704;2022-09-09T01:00:20;16.10;;;5.90;;
249;SDS011;109;19.806;-70.704;2022-09-09T01:14:34;12.00;;;5.07;;
249;SDS011;109;19.806;-70.704;2022-09-09T01:17:12;9.70;;;4.60;;
249;SDS011;109;19.806;-70.704;2022-09-09T01:20:10;11.40;;;6.17;;
249;SDS011;109;19.806;-70.704;2022-09-09T01:26:25;7.87;;;4.93;;
249;SDS011;109;19.806;-70.704;2022-09-09T01:29:12;11.70;;;4.87;;
249;SDS011;109;19.806;-70.704;2022-09-09T01:31:58;10.17;;;5.37;;
249;SDS011;109;19.806;-70.704;2022-09-09T01:35:02;9.13;;;5.07;;
249;SDS011;109;19.806;-70.704;2022-09-09T01:37:30;7.90;;;5.33;;
249;SDS011;109;19.806;-70.704;2022-09-09T01:40:09;17.43;;;5.60;;
249;SDS011;109;19.806;-70.704;2022-09-09T01:42:37;10.27;;;5.47;;
249;SDS011;109;19.806;-70.704;2022-09-09T01:45:17;11.47;;;5.20;;
249;SDS011;109;19.806;-70.704;2022-09-09T01:47:44;9.67;;;4.63;;
249;SDS011;109;19.806;-70.704;2022-09-09T01:50:48;7.83;;;4.37;;
249;SDS011;109;19.806;-70.704;2022-09-09T01:53:21;6.47;;;4.53;;
249;SDS011;109;19.806;-70.704;2022-09-09T01:56:05;9.70;;;4.87;;
249;SDS011;109;19.806;-70.704;2022-09-09T02:08:25;6.43;;;4.90;;
249;SDS011;109;19.806;-70.704;2022-09-09T02:11:14;7.80;;;5.03;;
249;SDS011;109;19.806;-70.704;2022-09-09T02:14:08;8.60;;;5.17;;
249;SDS011;109;19.806;-70.704;2022-09-09T02:16:55;16.90;;;5.17;;
249;SDS011;109;19.806;-70.704;2022-09-09T02:19:53;12.63;;;4.83;;
249;SDS011;109;19.806;-70.704;2022-09-09T02:22:41;12.10;;;5.50;;
249;SDS011;109;19.806;-70.704;2022-09-09T02:25:26;8.63;;;5.53;;
249;SDS011;109;19.806;-70.704;2022-09-09T02:28:14;7.47;;;4.97;;
249;SDS011;109;19.806;-70.704;2022-09-09T02:31:05;11.47;;;5.20;;
249;SDS011;109;19.806;-70.704;2022-09-09T02:33:42;9.70;;;5.00;;
249;SDS011;109;19.806;-70.704;2022-09-09T02:36:26;13.00;;;5.40;;
249;SDS011;109;19.806;-70.704;2022-09-09T02:39:08;15.17;;;5.37;;
249;SDS011;109;19.806;-70.704;2022-09-09T02:41:38;9.13;;;5.50;;
249;SDS011;109;19.806;-70.704;2022-09-09T02:44:27;11.33;;;5.10;;
249;SDS011;109;19.806;-70.704;2022-09-09T02:47:49;9.80;;;4.97;;
249;SDS011;109;19.806;-70.704;2022-09-09T02:53:16;11.00;;;4.77;;
249;SDS011;109;19.806;-70.704;2022-09-09T02:56:04;10.20;;;5.20;;
249;SDS011;109;19.806;-70.704;2022-09-09T02:58:43;11.20;;;4.63;;
249;SDS011;109;19.806;-70.704;2022-09-09T03:01:25;9.70;;;4.93;;
249;SDS011;109;19.806;-70.704;2022-09-09T03:04:05;5.97;;;4.90;;
249;SDS011;109;19.806;-70.704;2022-09-09T03:06:32;8.87;;;5.70;;
249;SDS011;109;19.806;-70.704;2022-09-09T03:09:18;6.10;;;5.23;;
249;SDS011;109;19.806;-70.704;2022-09-09T03:11:52;11.90;;;5.83;;
249;SDS011;109;19.806;-70.704;2022-09-09T03:14:40;10.90;;;5.43;;
249;SDS011;109;19.806;-70.704;2022-09-09T03:17:17;8.63;;;5.57;;
249;SDS011;109;19.806;-70.704;2022-09-09T03:19:57;9.60;;;5.07;;
249;SDS011;109;19.806;-70.704;2022-09-09T03:22:24;10.40;;;5.43;;
249;SDS011;109;19.806;-70.704;2022-09-09T03:25:05;13.03;;;5.30;;
249;SDS011;109;19.806;-70.704;2022-09-09T03:27:34;7.77;;;5.23;;
249;SDS011;109;19.806;-70.704;2022-09-09T03:30:21;8.90;;;5.57;;
249;SDS011;109;19.806;-70.704;2022-09-09T03:33:01;10.17;;;5.80;;
249;SDS011;109;19.806;-70.704;2022-09-09T03:35:45;10.00;;;5.97;;
249;SDS011;109;19.806;-70.704;2022-09-09T03:38:25;12.77;;;5.97;;
249;SDS011;109;19.806;-70.704;2022-09-09T03:41:07;11.27;;;6.60;;
249;SDS011;109;19.806;-70.704;2022-09-09T03:43:34;13.83;;;6.20;;
249;SDS011;109;19.806;-70.704;2022-09-09T03:46:14;11.73;;;6.10;;
249;SDS011;109;19.806;-70.704;2022-09-09T03:48:40;13.20;;;5.60;;
249;SDS011;109;19.806;-70.704;2022-09-09T03:51:20;12.50;;;5.67;;
249;SDS011;109;19.806;-70.704;2022-09-09T03:53:47;17.70;;;5.70;;
249;SDS011;109;19.806;-70.704;2022-09-09T03:56:31;12.77;;;6.30;;
249;SDS011;109;19.806;-70.704;2022-09-09T03:59:14;7.77;;;4.60;;
249;SDS011;109;19.806;-70.704;2022-09-09T04:01:41;10.20;;;4.93;;
249;SDS011;109;19.806;-70.704;2022-09-09T04:04:27;11.40;;;6.20;;
249;SDS011;109;19.806;-70.704;2022-09-09T04:07:00;10.03;;;5.40;;
249;SDS011;109;19.806;-70.704;2022-09-09T04:09:40;8.47;;;5.13;;
249;SDS011;109;19.806;-70.704;2022-09-09T04:12:07;13.10;;;5.80;;
249;SDS011;109;19.806;-70.704;2022-09-09T04:14:48;11.33;;;4.93;;
249;SDS011;109;19.806;-70.704;2022-09-09T04:17:15;10.43;;;5.80;;
249;SDS011;109;19.806;-70.704;2022-09-09T04:19:56;8.43;;;4.83;;
249;SDS011;109;19.806;-70.704;2022-09-09T04:22:23;8.80;;;5.00;;
249;SDS011;109;19.806;-70.704;2022-09-09T04:25:06;10.07;;;5.07;;
249;SDS011;109;19.806;-70.704;2022-09-09T04:27:32;11.07;;;4.87;;
249;SDS011;109;19.806;-70.704;2022-09-09T04:30:20;10.90;;;5.30;;
249;SDS011;109;19.806;-70.704;2022-09-09T04:33:00;15.80;;;6.03;;
249;SDS011;109;19.806;-70.704;2022-09-09T04:35:48;7.70;;;4.83;;
249;SDS011;109;19.806;-70.704;2022-09-09T04:38:24;8.30;;;4.87;;
249;SDS011;109;19.806;-70.704;2022-09-09T04:41:04;10.10;;;5.10;;
249;SDS011;109;19.806;-70.704;2022-09-09T04:43:33;9.93;;;5.80;;
249;SDS011;109;19.806;-70.704;2022-09-09T04:46:15;11.60;;;6.00;;
249;SDS011;109;19.806;-70.704;2022-09-09T04:48:51;13.80;;;6.90;;
249;SDS011;109;19.806;-70.704;2022-09-09T04:51:32;12.93;;;6.53;;
249;SDS011;109;19.806;-70.704;2022-09-09T04:54:12;12.30;;;5.97;;
249;SDS011;109;19.806;-70.704;2022-09-09T04:56:41;11.23;;;5.73;;
249;SDS011;109;19.806;-70.704;2022-09-09T04:59:29;8.03;;;5.83;;
249;SDS011;109;19.806;-70.704;2022-09-09T05:02:02;9.00;;;5.53;;
249;SDS011;109;19.806;-70.704;2022-09-09T05:04:43;12.87;;;5.80;;
249;SDS011;109;19.806;-70.704;2022-09-09T05:07:09;8.47;;;5.50;;
249;SDS011;109;19.806;-70.704;2022-09-09T05:09:50;10.00;;;5.73;;
249;SDS011;109;19.806;-70.704;2022-09-09T05:12:16;8.43;;;5.37;;
249;SDS011;109;19.806;-70.704;2022-09-09T05:14:57;12.33;;;5.03;;
249;SDS011;109;19.806;-70.704;2022-09-09T05:17:23;10.57;;;5.53;;
249;SDS011;109;19.806;-70.704;2022-09-09T05:20:04;11.53;;;4.90;;
249;SDS011;109;19.806;-70.704;2022-09-09T05:22:31;7.97;;;4.33;;
249;SDS011;109;19.806;-70.704;2022-09-09T05:25:12;7.67;;;4.77;;
249;SDS011;109;19.806;-70.704;2022-09-09T05:27:39;9.30;;;4.90;;
249;SDS011;109;19.806;-70.704;2022-09-09T05:30:26;9.10;;;4.23;;
249;SDS011;109;19.806;-70.704;2022-09-09T05:33:05;7.70;;;4.83;;
249;SDS011;109;19.806;-70.704;2022-09-09T05:35:46;10.13;;;4.87;;
249;SDS011;109;19.806;-70.704;2022-09-09T05:38:13;11.30;;;5.90;;
249;SDS011;109;19.806;-70.704;2022-09-09T05:40:53;7.87;;;5.50;;
249;SDS011;109;19.806;-70.704;2022-09-09T05:43:19;9.10;;;4.80;;
249;SDS011;109;19.806;-70.704;2022-09-09T05:46:03;6.83;;;5.30;;
249;SDS011;109;19.806;-70.704;2022-09-09T05:48:46;10.03;;;5.77;;
249;SDS011;109;19.806;-70.704;2022-09-09T05:51:30;8.60;;;5.50;;
249;SDS011;109;19.806;-70.704;2022-09-09T05:54:20;20.53;;;5.57;;
249;SDS011;109;19.806;-70.704;2022-09-09T05:56:54;11.70;;;6.20;;
249;SDS011;109;19.806;-70.704;2022-09-09T05:59:33;9.00;;;5.90;;
249;SDS011;109;19.806;-70.704;2022-09-09T06:02:00;8.30;;;5.40;;
249;SDS011;109;19.806;-70.704;2022-09-09T06:04:39;12.83;;;6.77;;
249;SDS011;109;19.806;-70.704;2022-09-09T06:07:06;14.80;;;6.43;;
249;SDS011;109;19.806;-70.704;2022-09-09T06:09:47;12.90;;;8.70;;
249;SDS011;109;19.806;-70.704;2022-09-09T06:12:14;14.53;;;10.40;;
249;SDS011;109;19.806;-70.704;2022-09-09T06:14:53;15.10;;;10.50;;
249;SDS011;109;19.806;-70.704;2022-09-09T06:17:19;21.00;;;11.70;;
249;SDS011;109;19.806;-70.704;2022-09-09T06:19:59;12.50;;;11.10;;
249;SDS011;109;19.806;-70.704;2022-09-09T06:22:26;15.40;;;10.67;;
249;SDS011;109;19.806;-70.704;2022-09-09T06:25:07;14.70;;;10.37;;
249;SDS011;109;19.806;-70.704;2022-09-09T06:27:35;17.13;;;9.93;;
249;SDS011;109;19.806;-70.704;2022-09-09T06:30:21;14.80;;;11.00;;
249;SDS011;109;19.806;-70.704;2022-09-09T06:33:00;11.40;;;10.00;;
249;SDS011;109;19.806;-70.704;2022-09-09T06:35:41;15.80;;;9.57;;
249;SDS011;109;19.806;-70.704;2022-09-09T06:38:07;10.50;;;8.60;;
249;SDS011;109;19.806;-70.704;2022-09-09T06:40:52;13.60;;;8.80;;
249;SDS011;109;19.806;-70.704;2022-09-09T06:43:31;15.80;;;10.90;;
249;SDS011;109;19.806;-70.704;2022-09-09T06:46:12;21.07;;;13.73;;
249;SDS011;109;19.806;-70.704;2022-09-09T06:48:47;20.80;;;15.47;;
249;SDS011;109;19.806;-70.704;2022-09-09T06:51:31;24.80;;;17.33;;
249;SDS011;109;19.806;-70.704;2022-09-09T06:54:16;26.10;;;17.07;;
249;SDS011;109;19.806;-70.704;2022-09-09T06:56:44;27.80;;;15.77;;
249;SDS011;109;19.806;-70.704;2022-09-09T06:59:24;20.30;;;13.77;;
249;SDS011;109;19.806;-70.704;2022-09-09T07:01:54;20.80;;;13.10;;
249;SDS011;109;19.806;-70.704;2022-09-09T07:04:33;17.07;;;12.50;;
249;SDS011;109;19.806;-70.704;2022-09-09T07:06:59;17.43;;;12.23;;
249;SDS011;109;19.806;-70.704;2022-09-09T07:09:41;23.10;;;12.70;;
249;SDS011;109;19.806;-70.704;2022-09-09T07:12:08;19.97;;;12.00;;
249;SDS011;109;19.806;-70.704;2022-09-09T07:14:55;18.07;;;12.03;;
249;SDS011;109;19.806;-70.704;2022-09-09T07:17:27;15.60;;;11.30;;
249;SDS011;109;19.806;-70.704;2022-09-09T07:20:07;18.07;;;11.10;;
249;SDS011;109;19.806;-70.704;2022-09-09T07:22:34;11.50;;;9.20;;
249;SDS011;109;19.806;-70.704;2022-09-09T07:25:14;17.63;;;9.70;;
249;SDS011;109;19.806;-70.704;2022-09-09T07:27:42;14.77;;;8.80;;
249;SDS011;109;19.806;-70.704;2022-09-09T07:30:30;11.70;;;9.10;;
249;SDS011;109;19.806;-70.704;2022-09-09T07:33:09;13.13;;;8.33;;
249;SDS011;109;19.806;-70.704;2022-09-09T07:35:52;12.87;;;7.70;;
249;SDS011;109;19.806;-70.704;2022-09-09T07:38:27;12.40;;;8.80;;
249;SDS011;109;19.806;-70.704;2022-09-09T07:41:07;14.77;;;8.63;;
249;SDS011;109;19.806;-70.704;2022-09-09T07:43:44;14.13;;;8.77;;
249;SDS011;109;19.806;-70.704;2022-09-09T07:46:26;14.57;;;8.20;;
249;SDS011;109;19.806;-70.704;2022-09-09T07:48:54;14.33;;;8.90;;
249;SDS011;109;19.806;-70.704;2022-09-09T07:51:37;13.63;;;9.07;;
249;SDS011;109;19.806;-70.704;2022-09-09T07:54:21;12.10;;;8.43;;
249;SDS011;109;19.806;-70.704;2022-09-09T07:56:50;11.07;;;7.97;;
249;SDS011;109;19.806;-70.704;2022-09-09T07:59:34;13.47;;;8.23;;
249;SDS011;109;19.806;-70.704;2022-09-09T08:02:02;10.63;;;8.00;;
249;SDS011;109;19.806;-70.704;2022-09-09T08:04:43;14.10;;;7.90;;
249;SDS011;109;19.806;-70.704;2022-09-09T08:07:10;9.97;;;7.70;;
249;SDS011;109;19.806;-70.704;2022-09-09T08:09:53;11.20;;;7.43;;
249;SDS011;109;19.806;-70.704;2022-09-09T08:12:30;11.53;;;7.90;;
249;SDS011;109;19.806;-70.704;2022-09-09T08:15:10;11.60;;;8.20;;
249;SDS011;109;19.806;-70.704;2022-09-09T08:17:37;13.63;;;8.33;;
249;SDS011;109;19.806;-70.704;2022-09-09T08:20:17;17.73;;;9.60;;
249;SDS011;109;19.806;-70.704;2022-09-09T08:22:44;12.70;;;7.93;;
249;SDS011;109;19.806;-70.704;2022-09-09T08:25:24;14.43;;;8.93;;
249;SDS011;109;19.806;-70.704;2022-09-09T08:27:52;11.50;;;9.23;;
249;SDS011;109;19.806;-70.704;2022-09-09T08:30:40;15.40;;;9.20;;
249;SDS011;109;19.806;-70.704;2022-09-09T08:33:20;12.40;;;9.60;;
249;SDS011;109;19.806;-70.704;2022-09-09T08:36:00;15.50;;;9.37;;
249;SDS011;109;19.806;-70.704;2022-09-09T08:38:35;13.60;;;9.67;;
249;SDS011;109;19.806;-70.704;2022-09-09T08:41:30;17.40;;;9.20;;
249;SDS011;109;19.806;-70.704;2022-09-09T08:50:30;14.00;;;10.63;;
249;SDS011;109;19.806;-70.704;2022-09-09T08:56:09;19.33;;;10.90;;
249;SDS011;109;19.806;-70.704;2022-09-09T08:58:54;16.13;;;10.70;;
249;SDS011;109;19.806;-70.704;2022-09-09T09:02:00;21.67;;;10.80;;
249;SDS011;109;19.806;-70.704;2022-09-09T09:05:09;13.80;;;10.13;;
249;SDS011;109;19.806;-70.704;2022-09-09T09:10:50;12.10;;;9.90;;
249;SDS011;109;19.806;-70.704;2022-09-09T09:16:23;12.83;;;10.47;;
249;SDS011;109;19.806;-70.704;2022-09-09T09:19:08;17.50;;;9.93;;
249;SDS011;109;19.806;-70.704;2022-09-09T09:27:57;13.13;;;10.67;;
249;SDS011;109;19.806;-70.704;2022-09-09T09:30:52;13.37;;;9.97;;
249;SDS011;109;19.806;-70.704;2022-09-09T09:36:24;16.77;;;11.13;;
249;SDS011;109;19.806;-70.704;2022-09-09T09:39:25;15.60;;;11.50;;
249;SDS011;109;19.806;-70.704;2022-09-09T09:42:07;14.00;;;11.43;;
249;SDS011;109;19.806;-70.704;2022-09-09T09:44:54;15.60;;;12.17;;
249;SDS011;109;19.806;-70.704;2022-09-09T09:47:27;13.20;;;12.40;;
249;SDS011;109;19.806;-70.704;2022-09-09T09:50:18;14.70;;;11.40;;
249;SDS011;109;19.806;-70.704;2022-09-09T09:52:56;15.43;;;11.93;;
249;SDS011;109;19.806;-70.704;2022-09-09T09:55:44;13.70;;;11.40;;
249;SDS011;109;19.806;-70.704;2022-09-09T09:58:48;13.70;;;11.30;;
249;SDS011;109;19.806;-70.704;2022-09-09T10:01:33;13.53;;;11.57;;
249;SDS011;109;19.806;-70.704;2022-09-09T10:06:55;14.50;;;12.17;;
249;SDS011;109;19.806;-70.704;2022-09-09T10:09:35;14.73;;;11.83;;
249;SDS011;109;19.806;-70.704;2022-09-09T10:15:01;16.60;;;12.70;;
249;SDS011;109;19.806;-70.704;2022-09-09T10:17:36;14.13;;;12.40;;
249;SDS011;109;19.806;-70.704;2022-09-09T10:29:59;13.63;;;11.90;;
249;SDS011;109;19.806;-70.704;2022-09-09T10:41:09;16.90;;;12.27;;
249;SDS011;109;19.806;-70.704;2022-09-09T10:44:12;18.63;;;12.30;;
249;SDS011;109;19.806;-70.704;2022-09-09T10:56:21;15.43;;;12.40;;
249;SDS011;109;19.806;-70.704;2022-09-09T11:02:05;19.50;;;12.60;;
249;SDS011;109;19.806;-70.704;2022-09-09T11:05:01;14.90;;;11.80;;
249;SDS011;109;19.806;-70.704;2022-09-09T11:08:01;17.07;;;11.60;;
249;SDS011;109;19.806;-70.704;2022-09-09T11:10:49;16.87;;;11.67;;
249;SDS011;109;19.806;-70.704;2022-09-09T11:16:50;17.50;;;12.20;;
249;SDS011;109;19.806;-70.704;2022-09-09T11:42:48;32.47;;;12.20;;
249;SDS011;109;19.806;-70.704;2022-09-09T11:45:41;37.70;;;12.33;;
249;SDS011;109;19.806;-70.704;2022-09-09T11:51:13;20.53;;;11.63;;
249;SDS011;109;19.806;-70.704;2022-09-09T11:53:59;18.20;;;12.53;;
249;SDS011;109;19.806;-70.704;2022-09-09T11:57:23;24.20;;;13.33;;
249;SDS011;109;19.806;-70.704;2022-09-09T12:12:04;20.50;;;13.87;;
249;SDS011;109;19.806;-70.704;2022-09-09T12:17:45;20.60;;;11.60;;
249;SDS011;109;19.806;-70.704;2022-09-09T12:20:35;14.63;;;11.20;;
249;SDS011;109;19.806;-70.704;2022-09-09T12:23:21;38.83;;;12.70;;
249;SDS011;109;19.806;-70.704;2022-09-09T12:26:19;35.20;;;11.70;;
249;SDS011;109;19.806;-70.704;2022-09-09T12:32:22;62.53;;;15.57;;
249;SDS011;109;19.806;-70.704;2022-09-09T12:37:54;19.57;;;10.10;;
249;SDS011;109;19.806;-70.704;2022-09-09T12:40:39;33.80;;;10.17;;
249;SDS011;109;19.806;-70.704;2022-09-09T12:43:19;14.67;;;9.40;;
249;SDS011;109;19.806;-70.704;2022-09-09T12:46:03;24.40;;;9.67;;
249;SDS011;109;19.806;-70.704;2022-09-09T12:48:48;22.67;;;10.50;;
249;SDS011;109;19.806;-70.704;2022-09-09T12:51:32;13.07;;;9.30;;
249;SDS011;109;19.806;-70.704;2022-09-09T12:54:13;20.20;;;9.80;;
249;SDS011;109;19.806;-70.704;2022-09-09T12:56:44;19.57;;;8.70;;
249;SDS011;109;19.806;-70.704;2022-09-09T12:59:34;14.67;;;8.70;;
249;SDS011;109;19.806;-70.704;2022-09-09T13:02:11;10.27;;;8.40;;
249;SDS011;109;19.806;-70.704;2022-09-09T13:05:06;18.50;;;8.90;;
249;SDS011;109;19.806;-70.704;2022-09-09T13:07:50;13.80;;;8.53;;
249;SDS011;109;19.806;-70.704;2022-09-09T13:10:31;14.50;;;9.10;;
249;SDS011;109;19.806;-70.704;2022-09-09T13:13:14;18.23;;;9.37;;
249;SDS011;109;19.806;-70.704;2022-09-09T13:16:00;13.30;;;8.40;;
249;SDS011;109;19.806;-70.704;2022-09-09T13:18:28;16.73;;;9.57;;
249;SDS011;109;19.806;-70.704;2022-09-09T13:21:11;22.03;;;10.73;;
249;SDS011;109;19.806;-70.704;2022-09-09T13:23:39;14.10;;;9.40;;
249;SDS011;109;19.806;-70.704;2022-09-09T13:26:23;20.87;;;9.60;;
249;SDS011;109;19.806;-70.704;2022-09-09T13:29:16;19.67;;;9.40;;
249;SDS011;109;19.806;-70.704;2022-09-09T13:32:04;18.63;;;9.47;;
249;SDS011;109;19.806;-70.704;2022-09-09T13:35:22;18.17;;;10.60;;
249;SDS011;109;19.806;-70.704;2022-09-09T13:37:57;15.40;;;9.30;;
249;SDS011;109;19.806;-70.704;2022-09-09T13:40:40;14.90;;;9.73;;
249;SDS011;109;19.806;-70.704;2022-09-09T13:43:43;16.27;;;9.93;;
249;SDS011;109;19.806;-70.704;2022-09-09T13:46:37;11.47;;;9.90;;
249;SDS011;109;19.806;-70.704;2022-09-09T13:49:27;14.93;;;10.37;;
249;SDS011;109;19.806;-70.704;2022-09-09T13:52:04;18.73;;;9.97;;
249;SDS011;109;19.806;-70.704;2022-09-09T13:54:49;14.37;;;10.00;;
249;SDS011;109;19.806;-70.704;2022-09-09T13:57:18;14.93;;;9.70;;
249;SDS011;109;19.806;-70.704;2022-09-09T14:00:00;17.07;;;10.30;;
249;SDS011;109;19.806;-70.704;2022-09-09T14:02:29;11.80;;;9.80;;
249;SDS011;109;19.806;-70.704;2022-09-09T14:05:10;16.40;;;10.33;;
249;SDS011;109;19.806;-70.704;2022-09-09T14:07:37;13.83;;;9.63;;
249;SDS011;109;19.806;-70.704;2022-09-09T14:10:17;22.93;;;10.27;;
249;SDS011;109;19.806;-70.704;2022-09-09T14:12:44;18.53;;;10.03;;
249;SDS011;109;19.806;-70.704;2022-09-09T14:15:24;16.50;;;10.30;;
249;SDS011;109;19.806;-70.704;2022-09-09T14:17:52;13.80;;;9.63;;
249;SDS011;109;19.806;-70.704;2022-09-09T14:20:31;20.10;;;9.33;;
249;SDS011;109;19.806;-70.704;2022-09-09T14:23:05;21.37;;;10.53;;
249;SDS011;109;19.806;-70.704;2022-09-09T14:25:45;16.43;;;9.57;;
249;SDS011;109;19.806;-70.704;2022-09-09T14:28:12;18.07;;;10.00;;
249;SDS011;109;19.806;-70.704;2022-09-09T14:30:59;15.23;;;9.40;;
249;SDS011;109;19.806;-70.704;2022-09-09T14:33:33;27.73;;;10.83;;
249;SDS011;109;19.806;-70.704;2022-09-09T14:36:14;18.67;;;9.70;;
249;SDS011;109;19.806;-70.704;2022-09-09T14:38:41;20.83;;;10.13;;
249;SDS011;109;19.806;-70.704;2022-09-09T14:41:20;15.73;;;10.13;;
249;SDS011;109;19.806;-70.704;2022-09-09T14:43:48;20.90;;;10.23;;
249;SDS011;109;19.806;-70.704;2022-09-09T14:46:28;13.93;;;9.80;;
249;SDS011;109;19.806;-70.704;2022-09-09T14:49:08;21.60;;;10.57;;
249;SDS011;109;19.806;-70.704;2022-09-09T14:51:36;19.83;;;9.50;;
249;SDS011;109;19.806;-70.704;2022-09-09T14:54:15;12.50;;;10.13;;
249;SDS011;109;19.806;-70.704;2022-09-09T14:56:42;31.33;;;10.00;;
249;SDS011;109;19.806;-70.704;2022-09-09T14:59:22;16.07;;;8.70;;
249;SDS011;109;19.806;-70.704;2022-09-09T15:01:49;18.63;;;9.87;;
249;SDS011;109;19.806;-70.704;2022-09-09T15:04:29;23.60;;;10.97;;
249;SDS011;109;19.806;-70.704;2022-09-09T15:06:56;16.57;;;10.73;;
249;SDS011;109;19.806;-70.704;2022-09-09T15:09:35;25.20;;;11.03;;
249;SDS011;109;19.806;-70.704;2022-09-09T15:12:02;16.53;;;10.23;;
249;SDS011;109;19.806;-70.704;2022-09-09T15:14:42;27.43;;;10.60;;
249;SDS011;109;19.806;-70.704;2022-09-09T15:17:09;26.47;;;9.90;;
249;SDS011;109;19.806;-70.704;2022-09-09T15:19:48;20.60;;;9.63;;
249;SDS011;109;19.806;-70.704;2022-09-09T15:22:23;15.97;;;8.90;;
249;SDS011;109;19.806;-70.704;2022-09-09T15:25:03;16.33;;;10.10;;
249;SDS011;109;19.806;-70.704;2022-09-09T15:27:31;21.43;;;11.27;;
249;SDS011;109;19.806;-70.704;2022-09-09T15:30:17;24.20;;;11.10;;
249;SDS011;109;19.806;-70.704;2022-09-09T15:32:56;17.10;;;11.23;;
249;SDS011;109;19.806;-70.704;2022-09-09T15:35:36;16.50;;;10.80;;
249;SDS011;109;19.806;-70.704;2022-09-09T15:38:03;17.90;;;11.13;;
249;SDS011;109;19.806;-70.704;2022-09-09T15:40:44;17.23;;;10.10;;
249;SDS011;109;19.806;-70.704;2022-09-09T15:43:26;18.50;;;10.93;;
249;SDS011;109;19.806;-70.704;2022-09-09T15:46:21;11.50;;;9.00;;
249;SDS011;109;19.806;-70.704;2022-09-09T15:49:03;22.90;;;11.20;;
249;SDS011;109;19.806;-70.704;2022-09-09T15:51:47;13.33;;;11.00;;
249;SDS011;109;19.806;-70.704;2022-09-09T15:54:36;10.70;;;10.13;;
249;SDS011;109;19.806;-70.704;2022-09-09T15:57:06;16.87;;;10.60;;
249;SDS011;109;19.806;-70.704;2022-09-09T15:59:49;14.53;;;9.90;;
249;SDS011;109;19.806;-70.704;2022-09-09T16:02:16;20.53;;;10.33;;
249;SDS011;109;19.806;-70.704;2022-09-09T16:05:04;13.07;;;10.37;;
249;SDS011;109;19.806;-70.704;2022-09-09T16:07:37;19.33;;;10.10;;
249;SDS011;109;19.806;-70.704;2022-09-09T16:10:17;21.17;;;10.50;;
249;SDS011;109;19.806;-70.704;2022-09-09T16:12:44;15.87;;;9.90;;
249;SDS011;109;19.806;-70.704;2022-09-09T16:15:24;16.90;;;10.00;;
249;SDS011;109;19.806;-70.704;2022-09-09T16:17:53;25.97;;;11.37;;
249;SDS011;109;19.806;-70.704;2022-09-09T16:20:32;21.60;;;11.30;;
249;SDS011;109;19.806;-70.704;2022-09-09T16:22:59;15.27;;;10.17;;
249;SDS011;109;19.806;-70.704;2022-09-09T16:25:38;13.70;;;10.90;;
249;SDS011;109;19.806;-70.704;2022-09-09T16:28:05;15.97;;;11.47;;
249;SDS011;109;19.806;-70.704;2022-09-09T16:30:51;15.33;;;10.77;;
249;SDS011;109;19.806;-70.704;2022-09-09T16:33:31;16.80;;;10.60;;
249;SDS011;109;19.806;-70.704;2022-09-09T16:36:12;14.60;;;10.90;;
249;SDS011;109;19.806;-70.704;2022-09-09T16:38:41;13.20;;;10.90;;
249;SDS011;109;19.806;-70.704;2022-09-09T16:41:21;18.13;;;11.50;;
249;SDS011;109;19.806;-70.704;2022-09-09T16:43:51;12.80;;;10.90;;
249;SDS011;109;19.806;-70.704;2022-09-09T16:46:38;18.03;;;11.37;;
249;SDS011;109;19.806;-70.704;2022-09-09T16:49:24;17.20;;;13.13;;
249;SDS011;109;19.806;-70.704;2022-09-09T16:51:51;17.47;;;11.07;;
249;SDS011;109;19.806;-70.704;2022-09-09T16:54:30;15.67;;;11.60;;
249;SDS011;109;19.806;-70.704;2022-09-09T16:56:57;15.47;;;11.93;;
249;SDS011;109;19.806;-70.704;2022-09-09T16:59:38;17.93;;;12.13;;
249;SDS011;109;19.806;-70.704;2022-09-09T17:02:05;16.53;;;12.17;;
249;SDS011;109;19.806;-70.704;2022-09-09T17:04:54;18.30;;;11.80;;
249;SDS011;109;19.806;-70.704;2022-09-09T17:07:27;30.87;;;13.57;;
249;SDS011;109;19.806;-70.704;2022-09-09T17:10:07;15.63;;;11.90;;
249;SDS011;109;19.806;-70.704;2022-09-09T17:12:34;16.93;;;12.33;;
249;SDS011;109;19.806;-70.704;2022-09-09T17:15:13;14.60;;;11.07;;
249;SDS011;109;19.806;-70.704;2022-09-09T17:17:40;27.33;;;12.33;;
249;SDS011;109;19.806;-70.704;2022-09-09T17:20:21;16.47;;;11.47;;
249;SDS011;109;19.806;-70.704;2022-09-09T17:22:48;14.10;;;12.00;;
249;SDS011;109;19.806;-70.704;2022-09-09T17:25:28;17.33;;;12.17;;
249;SDS011;109;19.806;-70.704;2022-09-09T17:27:55;20.93;;;12.73;;
249;SDS011;109;19.806;-70.704;2022-09-09T17:30:45;23.07;;;13.53;;
249;SDS011;109;19.806;-70.704;2022-09-09T17:33:19;19.23;;;12.30;;
249;SDS011;109;19.806;-70.704;2022-09-09T17:36:10;17.20;;;13.50;;
249;SDS011;109;19.806;-70.704;2022-09-09T17:38:45;19.80;;;13.73;;
249;SDS011;109;19.806;-70.704;2022-09-09T17:41:30;21.50;;;13.30;;
249;SDS011;109;19.806;-70.704;2022-09-09T17:44:10;25.80;;;11.90;;
249;SDS011;109;19.806;-70.704;2022-09-09T17:46:37;42.57;;;15.43;;
249;SDS011;109;19.806;-70.704;2022-09-09T17:49:18;22.90;;;13.30;;
249;SDS011;109;19.806;-70.704;2022-09-09T17:51:45;30.43;;;13.17;;
249;SDS011;109;19.806;-70.704;2022-09-09T17:54:25;35.10;;;16.83;;
249;SDS011;109;19.806;-70.704;2022-09-09T17:57:00;31.73;;;14.90;;
249;SDS011;109;19.806;-70.704;2022-09-09T17:59:40;40.20;;;15.50;;
249;SDS011;109;19.806;-70.704;2022-09-09T18:02:08;33.63;;;13.33;;
249;SDS011;109;19.806;-70.704;2022-09-09T18:04:50;23.87;;;13.60;;
249;SDS011;109;19.806;-70.704;2022-09-09T18:07:17;23.63;;;14.63;;
249;SDS011;109;19.806;-70.704;2022-09-09T18:09:57;27.33;;;13.10;;
249;SDS011;109;19.806;-70.704;2022-09-09T18:12:24;26.27;;;12.50;;
249;SDS011;109;19.806;-70.704;2022-09-09T18:15:03;40.53;;;14.80;;
249;SDS011;109;19.806;-70.704;2022-09-09T18:17:30;76.63;;;17.07;;
249;SDS011;109;19.806;-70.704;2022-09-09T18:20:10;47.10;;;16.83;;
249;SDS011;109;19.806;-70.704;2022-09-09T18:22:37;40.43;;;12.93;;
249;SDS011;109;19.806;-70.704;2022-09-09T18:25:17;32.30;;;12.60;;
249;SDS011;109;19.806;-70.704;2022-09-09T18:27:44;28.80;;;11.73;;
249;SDS011;109;19.806;-70.704;2022-09-09T18:30:31;19.20;;;10.80;;
249;SDS011;109;19.806;-70.704;2022-09-09T18:33:10;34.00;;;12.73;;
249;SDS011;109;19.806;-70.704;2022-09-09T18:35:50;36.90;;;11.13;;
249;SDS011;109;19.806;-70.704;2022-09-09T18:38:32;43.40;;;11.93;;
249;SDS011;109;19.806;-70.704;2022-09-09T18:41:13;42.67;;;12.30;;
249;SDS011;109;19.806;-70.704;2022-09-09T18:43:54;22.23;;;9.50;;
249;SDS011;109;19.806;-70.704;2022-09-09T18:46:37;25.20;;;9.20;;
249;SDS011;109;19.806;-70.704;2022-09-09T18:49:18;66.23;;;14.23;;